sensor_id;sensor_type;location;lat;lon;timestamp;pressure;altitude;pressure_sealevel;temperature;humidity
30819;BME280;17546;42.674;23.284;2023-04-19T00:00:37;94331.84;;;19.03;40.05
30819;BME280;17546;42.674;23.284;2023-04-19T00:03:03;94320.66;;;18.95;40.16
30819;BME280;17546;42.674;23.284;2023-04-19T00:05:28;94338.22;;;19.11;40.31
30819;BME280;17546;42.674;23.284;2023-04-19T00:07:53;94334.09;;;19.04;40.40
30819;BME280;17546;42.674;23.284;2023-04-19T00:10:19;94319.69;;;19.00;40.15
30819;BME280;17546;42.674;23.284;2023-04-19T00:12:45;94336.16;;;19.11;39.93
30819;BME280;17546;42.674;23.284;2023-04-19T00:15:10;94309.63;;;18.97;40.00
30819;BME280;17546;42.674;23.284;2023-04-19T00:17:36;94326.44;;;19.05;40.16
30819;BME280;17546;42.674;23.284;2023-04-19T00:20:03;94317.25;;;18.73;40.64
30819;BME280;17546;42.674;23.284;2023-04-19T00:22:29;94322.50;;;18.77;40.76
30819;BME280;17546;42.674;23.284;2023-04-19T00:24:55;94335.25;;;18.86;40.66
30819;BME280;17546;42.674;23.284;2023-04-19T00:27:20;94299.50;;;18.71;40.63
30819;BME280;17546;42.674;23.284;2023-04-19T00:29:45;94321.78;;;18.92;40.69
30819;BME280;17546;42.674;23.284;2023-04-19T00:32:11;94321.41;;;18.88;40.54
30819;BME280;17546;42.674;23.284;2023-04-19T00:34:36;94322.50;;;18.54;41.21
30819;BME280;17546;42.674;23.284;2023-04-19T00:37:02;94306.44;;;18.54;41.01
30819;BME280;17546;42.674;23.284;2023-04-19T00:39:30;94324.00;;;18.70;40.92
30819;BME280;17546;42.674;23.284;2023-04-19T00:41:55;94323.25;;;18.70;40.80
30819;BME280;17546;42.674;23.284;2023-04-19T00:44:23;94302.31;;;18.55;41.34
30819;BME280;17546;42.674;23.284;2023-04-19T00:46:49;94303.00;;;18.10;41.78
30819;BME280;17546;42.674;23.284;2023-04-19T00:49:16;94305.25;;;18.04;42.18
30819;BME280;17546;42.674;23.284;2023-04-19T00:51:42;94318.13;;;18.07;42.22
30819;BME280;17546;42.674;23.284;2023-04-19T00:54:08;94320.59;;;18.18;42.00
30819;BME280;17546;42.674;23.284;2023-04-19T00:56:34;94297.78;;;18.14;42.01
30819;BME280;17546;42.674;23.284;2023-04-19T00:59:00;94310.66;;;18.02;42.35
30819;BME280;17546;42.674;23.284;2023-04-19T01:01:25;94320.59;;;18.10;42.15
30819;BME280;17546;42.674;23.284;2023-04-19T01:04:05;94308.78;;;18.12;42.29
30819;BME280;17546;42.674;23.284;2023-04-19T01:06:30;94296.03;;;17.88;42.55
30819;BME280;17546;42.674;23.284;2023-04-19T01:08:56;94308.88;;;17.75;42.82
30819;BME280;17546;42.674;23.284;2023-04-19T01:11:24;94293.75;;;17.34;43.85
30819;BME280;17546;42.674;23.284;2023-04-19T01:13:50;94286.97;;;16.86;44.85
30819;BME280;17546;42.674;23.284;2023-04-19T01:16:16;94301.09;;;17.45;43.84
30819;BME280;17546;42.674;23.284;2023-04-19T01:18:42;94290.81;;;17.48;43.86
30819;BME280;17546;42.674;23.284;2023-04-19T01:21:08;94275.16;;;17.08;44.38
30819;BME280;17546;42.674;23.284;2023-04-19T01:23:34;94292.94;;;17.19;44.55
30819;BME280;17546;42.674;23.284;2023-04-19T01:26:03;94292.22;;;17.26;44.61
30819;BME280;17546;42.674;23.284;2023-04-19T01:28:28;94282.94;;;17.31;44.33
30819;BME280;17546;42.674;23.284;2023-04-19T01:30:54;94297.13;;;17.33;44.45
30819;BME280;17546;42.674;23.284;2023-04-19T01:33:20;94285.72;;;16.94;44.98
30819;BME280;17546;42.674;23.284;2023-04-19T01:35:46;94285.44;;;17.13;44.89
30819;BME280;17546;42.674;23.284;2023-04-19T01:38:12;94302.63;;;17.54;44.38
30819;BME280;17546;42.674;23.284;2023-04-19T01:40:38;94296.28;;;17.53;44.23
30819;BME280;17546;42.674;23.284;2023-04-19T01:43:03;94285.63;;;17.52;44.13
30819;BME280;17546;42.674;23.284;2023-04-19T01:45:28;94299.28;;;17.63;44.15
30819;BME280;17546;42.674;23.284;2023-04-19T01:47:54;94289.00;;;17.58;44.04
30819;BME280;17546;42.674;23.284;2023-04-19T01:50:20;94269.91;;;17.41;44.27
30819;BME280;17546;42.674;23.284;2023-04-19T01:52:45;94286.19;;;17.14;45.24
30819;BME280;17546;42.674;23.284;2023-04-19T01:55:11;94290.75;;;17.32;45.03
30819;BME280;17546;42.674;23.284;2023-04-19T01:57:36;94293.13;;;17.21;45.25
30819;BME280;17546;42.674;23.284;2023-04-19T02:00:02;94280.25;;;17.18;44.99
30819;BME280;17546;42.674;23.284;2023-04-19T02:02:28;94288.94;;;17.43;44.87
30819;BME280;17546;42.674;23.284;2023-04-19T02:04:53;94284.41;;;17.32;44.98
30819;BME280;17546;42.674;23.284;2023-04-19T02:07:19;94293.75;;;16.77;46.17
30819;BME280;17546;42.674;23.284;2023-04-19T02:09:44;94292.28;;;16.76;46.10
30819;BME280;17546;42.674;23.284;2023-04-19T02:12:09;94298.47;;;16.53;46.56
30819;BME280;17546;42.674;23.284;2023-04-19T02:14:35;94284.94;;;16.02;47.54
30819;BME280;17546;42.674;23.284;2023-04-19T02:17:00;94291.97;;;16.38;46.98
30819;BME280;17546;42.674;23.284;2023-04-19T02:19:26;94286.50;;;16.53;46.55
30819;BME280;17546;42.674;23.284;2023-04-19T02:21:51;94270.13;;;16.07;47.22
30819;BME280;17546;42.674;23.284;2023-04-19T02:24:22;94294.19;;;15.63;48.76
30819;BME280;17546;42.674;23.284;2023-04-19T02:26:47;94291.19;;;15.61;48.82
30819;BME280;17546;42.674;23.284;2023-04-19T02:29:13;94292.53;;;15.46;48.96
30819;BME280;17546;42.674;23.284;2023-04-19T02:31:39;94286.72;;;15.92;47.95
30819;BME280;17546;42.674;23.284;2023-04-19T02:34:04;94289.03;;;15.67;48.53
30819;BME280;17546;42.674;23.284;2023-04-19T02:36:30;94262.50;;;15.39;48.81
30819;BME280;17546;42.674;23.284;2023-04-19T02:38:56;94267.25;;;15.65;48.32
30819;BME280;17546;42.674;23.284;2023-04-19T02:41:23;94262.44;;;15.53;48.40
30819;BME280;17546;42.674;23.284;2023-04-19T02:43:49;94267.38;;;15.60;48.31
30819;BME280;17546;42.674;23.284;2023-04-19T02:46:14;94279.72;;;15.99;47.91
30819;BME280;17546;42.674;23.284;2023-04-19T02:48:39;94286.88;;;16.07;47.52
30819;BME280;17546;42.674;23.284;2023-04-19T02:51:05;94255.03;;;15.89;47.53
30819;BME280;17546;42.674;23.284;2023-04-19T02:53:30;94281.25;;;15.86;47.86
30819;BME280;17546;42.674;23.284;2023-04-19T02:55:56;94267.13;;;15.71;48.11
30819;BME280;17546;42.674;23.284;2023-04-19T02:58:21;94260.31;;;15.45;48.91
30819;BME280;17546;42.674;23.284;2023-04-19T03:00:46;94285.44;;;15.32;49.14
30819;BME280;17546;42.674;23.284;2023-04-19T03:03:12;94275.06;;;15.67;48.28
30819;BME280;17546;42.674;23.284;2023-04-19T03:05:37;94283.16;;;15.91;47.91
30819;BME280;17546;42.674;23.284;2023-04-19T03:08:03;94278.19;;;15.98;47.74
30819;BME280;17546;42.674;23.284;2023-04-19T03:10:28;94253.13;;;15.84;47.74
30819;BME280;17546;42.674;23.284;2023-04-19T03:12:54;94273.38;;;16.19;47.35
30819;BME280;17546;42.674;23.284;2023-04-19T03:15:20;94280.41;;;16.13;47.09
30819;BME280;17546;42.674;23.284;2023-04-19T03:17:46;94275.06;;;16.22;46.91
30819;BME280;17546;42.674;23.284;2023-04-19T03:20:11;94266.44;;;16.13;46.96
30819;BME280;17546;42.674;23.284;2023-04-19T03:22:37;94262.75;;;15.97;47.30
30819;BME280;17546;42.674;23.284;2023-04-19T03:25:03;94244.53;;;15.82;47.04
30819;BME280;17546;42.674;23.284;2023-04-19T03:27:29;94279.66;;;16.12;47.03
30819;BME280;17546;42.674;23.284;2023-04-19T03:29:55;94252.38;;;15.84;47.30
30819;BME280;17546;42.674;23.284;2023-04-19T03:32:21;94277.00;;;16.27;46.76
30819;BME280;17546;42.674;23.284;2023-04-19T03:34:46;94269.19;;;16.33;46.61
30819;BME280;17546;42.674;23.284;2023-04-19T03:37:11;94276.03;;;16.46;46.39
30819;BME280;17546;42.674;23.284;2023-04-19T03:39:37;94261.72;;;16.28;46.42
30819;BME280;17546;42.674;23.284;2023-04-19T03:42:02;94281.72;;;16.61;45.86
30819;BME280;17546;42.674;23.284;2023-04-19T03:44:34;94287.59;;;16.50;46.00
30819;BME280;17546;42.674;23.284;2023-04-19T03:46:59;94270.94;;;16.65;45.92
30819;BME280;17546;42.674;23.284;2023-04-19T03:49:24;94278.06;;;16.24;46.56
30819;BME280;17546;42.674;23.284;2023-04-19T03:51:50;94267.72;;;16.32;46.37
30819;BME280;17546;42.674;23.284;2023-04-19T03:54:16;94241.75;;;16.24;46.30
30819;BME280;17546;42.674;23.284;2023-04-19T03:56:41;94266.41;;;16.55;46.12
30819;BME280;17546;42.674;23.284;2023-04-19T03:59:08;94256.94;;;15.95;46.93
30819;BME280;17546;42.674;23.284;2023-04-19T04:01:33;94275.63;;;16.00;46.95
30819;BME280;17546;42.674;23.284;2023-04-19T04:03:59;94272.97;;;15.94;47.17
30819;BME280;17546;42.674;23.284;2023-04-19T04:06:24;94252.38;;;15.36;48.23
30819;BME280;17546;42.674;23.284;2023-04-19T04:08:51;94257.81;;;15.55;48.07
30819;BME280;17546;42.674;23.284;2023-04-19T04:11:16;94269.94;;;15.58;48.37
30819;BME280;17546;42.674;23.284;2023-04-19T04:13:42;94280.72;;;15.88;47.84
30819;BME280;17546;42.674;23.284;2023-04-19T04:16:07;94276.72;;;15.97;47.46
30819;BME280;17546;42.674;23.284;2023-04-19T04:18:33;94277.41;;;15.28;48.90
30819;BME280;17546;42.674;23.284;2023-04-19T04:20:59;94279.03;;;15.37;48.72
30819;BME280;17546;42.674;23.284;2023-04-19T04:23:25;94261.25;;;15.00;49.29
30819;BME280;17546;42.674;23.284;2023-04-19T04:25:57;94273.06;;;15.06;49.39
30819;BME280;17546;42.674;23.284;2023-04-19T04:28:28;94284.31;;;15.75;48.12
30819;BME280;17546;42.674;23.284;2023-04-19T04:30:54;94246.97;;;15.52;48.02
30819;BME280;17546;42.674;23.284;2023-04-19T04:33:23;94285.19;;;15.57;48.28
30819;BME280;17546;42.674;23.284;2023-04-19T04:35:50;94263.09;;;15.45;48.07
30819;BME280;17546;42.674;23.284;2023-04-19T04:38:16;94289.19;;;15.48;48.26
30819;BME280;17546;42.674;23.284;2023-04-19T04:40:42;94266.19;;;15.55;48.06
30819;BME280;17546;42.674;23.284;2023-04-19T04:43:07;94291.16;;;15.87;47.40
30819;BME280;17546;42.674;23.284;2023-04-19T04:45:33;94290.31;;;15.79;47.72
30819;BME280;17546;42.674;23.284;2023-04-19T04:47:58;94290.63;;;16.10;47.62
30819;BME280;17546;42.674;23.284;2023-04-19T04:50:23;94286.94;;;16.15;47.19
30819;BME280;17546;42.674;23.284;2023-04-19T04:52:49;94277.44;;;15.63;48.04
30819;BME280;17546;42.674;23.284;2023-04-19T04:55:14;94286.47;;;15.56;48.25
30819;BME280;17546;42.674;23.284;2023-04-19T04:57:40;94292.16;;;15.63;48.04
30819;BME280;17546;42.674;23.284;2023-04-19T05:00:06;94288.22;;;15.59;48.24
30819;BME280;17546;42.674;23.284;2023-04-19T05:02:36;94286.34;;;15.00;49.83
30819;BME280;17546;42.674;23.284;2023-04-19T05:05:01;94283.84;;;15.37;48.69
30819;BME280;17546;42.674;23.284;2023-04-19T05:07:27;94266.84;;;14.87;49.75
30819;BME280;17546;42.674;23.284;2023-04-19T05:09:52;94276.38;;;15.05;49.48
30819;BME280;17546;42.674;23.284;2023-04-19T05:12:18;94293.97;;;15.00;49.83
30819;BME280;17546;42.674;23.284;2023-04-19T05:14:43;94292.53;;;15.33;48.94
30819;BME280;17546;42.674;23.284;2023-04-19T05:17:09;94280.81;;;15.48;48.57
30819;BME280;17546;42.674;23.284;2023-04-19T05:19:34;94277.09;;;15.19;48.88
30819;BME280;17546;42.674;23.284;2023-04-19T05:22:00;94296.41;;;14.63;50.62
30819;BME280;17546;42.674;23.284;2023-04-19T05:24:25;94289.13;;;15.14;49.44
30819;BME280;17546;42.674;23.284;2023-04-19T05:26:50;94296.63;;;14.79;50.21
30819;BME280;17546;42.674;23.284;2023-04-19T05:29:16;94279.16;;;14.92;49.99
30819;BME280;17546;42.674;23.284;2023-04-19T05:31:41;94293.63;;;15.03;49.52
30819;BME280;17546;42.674;23.284;2023-04-19T05:34:07;94306.03;;;15.56;48.83
30819;BME280;17546;42.674;23.284;2023-04-19T05:36:32;94287.81;;;15.41;49.14
30819;BME280;17546;42.674;23.284;2023-04-19T05:38:57;94286.06;;;15.52;48.66
30819;BME280;17546;42.674;23.284;2023-04-19T05:41:23;94308.97;;;15.84;48.46
30819;BME280;17546;42.674;23.284;2023-04-19T05:43:48;94293.53;;;15.83;47.98
30819;BME280;17546;42.674;23.284;2023-04-19T05:46:13;94287.88;;;15.97;47.81
30819;BME280;17546;42.674;23.284;2023-04-19T05:48:39;94293.69;;;16.20;47.34
30819;BME280;17546;42.674;23.284;2023-04-19T05:51:05;94300.88;;;15.60;48.68
30819;BME280;17546;42.674;23.284;2023-04-19T05:53:30;94291.47;;;15.23;49.55
30819;BME280;17546;42.674;23.284;2023-04-19T05:55:56;94303.56;;;15.39;49.19
30819;BME280;17546;42.674;23.284;2023-04-19T05:58:22;94293.63;;;14.90;50.25
30819;BME280;17546;42.674;23.284;2023-04-19T06:00:47;94313.56;;;15.34;49.57
30819;BME280;17546;42.674;23.284;2023-04-19T06:03:13;94310.47;;;15.38;49.25
30819;BME280;17546;42.674;23.284;2023-04-19T06:05:39;94314.88;;;14.93;50.31
30819;BME280;17546;42.674;23.284;2023-04-19T06:08:05;94304.78;;;15.03;50.07
30819;BME280;17546;42.674;23.284;2023-04-19T06:10:31;94301.81;;;15.15;49.55
30819;BME280;17546;42.674;23.284;2023-04-19T06:12:56;94276.06;;;15.08;49.41
30819;BME280;17546;42.674;23.284;2023-04-19T06:15:22;94258.88;;;14.51;50.58
30819;BME280;17546;42.674;23.284;2023-04-19T06:17:50;94252.47;;;14.70;50.13
30819;BME280;17546;42.674;23.284;2023-04-19T06:20:15;94250.97;;;14.82;49.88
30819;BME280;17546;42.674;23.284;2023-04-19T06:22:43;94291.88;;;14.47;50.83
30819;BME280;17546;42.674;23.284;2023-04-19T06:25:09;94281.16;;;14.51;51.15
30819;BME280;17546;42.674;23.284;2023-04-19T06:27:35;94242.28;;;14.59;50.02
30819;BME280;17546;42.674;23.284;2023-04-19T06:30:00;94286.09;;;15.25;49.50
30819;BME280;17546;42.674;23.284;2023-04-19T06:32:26;94304.69;;;15.09;49.77
30819;BME280;17546;42.674;23.284;2023-04-19T06:34:51;94283.34;;;15.12;49.23
30819;BME280;17546;42.674;23.284;2023-04-19T06:37:17;94275.63;;;15.18;49.23
30819;BME280;17546;42.674;23.284;2023-04-19T06:39:42;94304.28;;;16.00;48.19
30819;BME280;17546;42.674;23.284;2023-04-19T06:42:08;94284.19;;;16.02;47.73
30819;BME280;17546;42.674;23.284;2023-04-19T06:44:34;94323.72;;;15.58;48.83
30819;BME280;17546;42.674;23.284;2023-04-19T06:47:00;94323.34;;;15.27;49.96
30819;BME280;17546;42.674;23.284;2023-04-19T06:49:25;94245.50;;;14.76;49.75
30819;BME280;17546;42.674;23.284;2023-04-19T06:51:51;94259.81;;;15.20;48.99
30819;BME280;17546;42.674;23.284;2023-04-19T06:54:17;94282.47;;;15.78;48.02
30819;BME280;17546;42.674;23.284;2023-04-19T06:56:45;94271.59;;;15.40;48.40
30819;BME280;17546;42.674;23.284;2023-04-19T06:59:15;94265.19;;;15.66;48.01
30819;BME280;17546;42.674;23.284;2023-04-19T07:01:42;94316.03;;;15.99;48.07
30819;BME280;17546;42.674;23.284;2023-04-19T07:04:08;94347.78;;;16.09;48.12
30819;BME280;17546;42.674;23.284;2023-04-19T07:06:35;94341.00;;;16.39;47.24
30819;BME280;17546;42.674;23.284;2023-04-19T07:09:01;94297.16;;;16.13;47.02
30819;BME280;17546;42.674;23.284;2023-04-19T07:11:28;94296.22;;;15.28;48.73
30819;BME280;17546;42.674;23.284;2023-04-19T07:13:54;94275.13;;;15.88;47.40
30819;BME280;17546;42.674;23.284;2023-04-19T07:16:20;94289.25;;;16.03;47.10
30819;BME280;17546;42.674;23.284;2023-04-19T07:18:45;94259.81;;;15.81;47.48
30819;BME280;17546;42.674;23.284;2023-04-19T07:21:12;94307.84;;;16.01;47.56
30819;BME280;17546;42.674;23.284;2023-04-19T07:23:38;94289.03;;;16.22;46.88
30819;BME280;17546;42.674;23.284;2023-04-19T07:26:04;94297.91;;;15.92;47.99
30819;BME280;17546;42.674;23.284;2023-04-19T07:28:30;94275.69;;;16.07;47.08
30819;BME280;17546;42.674;23.284;2023-04-19T07:30:56;94297.06;;;16.05;47.18
30819;BME280;17546;42.674;23.284;2023-04-19T07:33:22;94309.56;;;16.46;46.67
30819;BME280;17546;42.674;23.284;2023-04-19T07:35:49;94276.09;;;16.32;46.19
30819;BME280;17546;42.674;23.284;2023-04-19T07:38:16;94294.81;;;16.66;45.86
30819;BME280;17546;42.674;23.284;2023-04-19T07:40:41;94285.97;;;16.33;46.19
30819;BME280;17546;42.674;23.284;2023-04-19T07:43:07;94275.75;;;16.15;46.35
30819;BME280;17546;42.674;23.284;2023-04-19T07:45:35;94340.38;;;16.32;46.99
30819;BME280;17546;42.674;23.284;2023-04-19T07:48:00;94277.56;;;15.91;47.10
30819;BME280;17546;42.674;23.284;2023-04-19T07:50:29;94346.91;;;16.35;47.42
30819;BME280;17546;42.674;23.284;2023-04-19T07:52:55;94299.13;;;16.46;46.21
30819;BME280;17546;42.674;23.284;2023-04-19T07:55:21;94344.47;;;16.31;47.19
30819;BME280;17546;42.674;23.284;2023-04-19T07:57:47;94312.63;;;16.56;46.34
30819;BME280;17546;42.674;23.284;2023-04-19T08:00:14;94313.53;;;16.79;46.08
30819;BME280;17546;42.674;23.284;2023-04-19T08:02:47;94296.13;;;16.65;46.24
30819;BME280;17546;42.674;23.284;2023-04-19T08:05:15;94337.56;;;16.74;46.23
30819;BME280;17546;42.674;23.284;2023-04-19T08:07:44;94288.97;;;16.36;46.39
30819;BME280;17546;42.674;23.284;2023-04-19T08:10:11;94345.13;;;16.66;46.41
30819;BME280;17546;42.674;23.284;2023-04-19T08:12:37;94277.13;;;16.01;46.79
30819;BME280;17546;42.674;23.284;2023-04-19T08:15:05;94340.16;;;16.30;47.38
30819;BME280;17546;42.674;23.284;2023-04-19T08:17:32;94290.22;;;16.06;47.16
30819;BME280;17546;42.674;23.284;2023-04-19T08:19:57;94308.88;;;16.53;46.47
30819;BME280;17546;42.674;23.284;2023-04-19T08:22:23;94345.97;;;16.74;46.09
30819;BME280;17546;42.674;23.284;2023-04-19T08:24:50;94292.09;;;16.11;46.69
30819;BME280;17546;42.674;23.284;2023-04-19T08:27:19;94277.41;;;15.42;48.05
30819;BME280;17546;42.674;23.284;2023-04-19T08:29:45;94271.75;;;16.03;47.12
30819;BME280;17546;42.674;23.284;2023-04-19T08:32:11;94275.97;;;16.38;46.07
30819;BME280;17546;42.674;23.284;2023-04-19T08:34:38;94284.22;;;16.93;45.28
30819;BME280;17546;42.674;23.284;2023-04-19T08:37:05;94267.84;;;16.77;45.29
30819;BME280;17546;42.674;23.284;2023-04-19T08:39:32;94269.78;;;16.82;45.00
30819;BME280;17546;42.674;23.284;2023-04-19T08:42:05;94271.19;;;16.04;46.61
30819;BME280;17546;42.674;23.284;2023-04-19T08:44:32;94331.69;;;17.07;45.70
30819;BME280;17546;42.674;23.284;2023-04-19T08:46:58;94254.44;;;16.25;45.95
30819;BME280;17546;42.674;23.284;2023-04-19T08:49:26;94293.47;;;16.39;46.60
30819;BME280;17546;42.674;23.284;2023-04-19T08:51:54;94266.63;;;16.15;46.46
30819;BME280;17546;42.674;23.284;2023-04-19T08:54:20;94259.59;;;16.71;45.28
30819;BME280;17546;42.674;23.284;2023-04-19T08:56:46;94323.28;;;16.36;47.09
30819;BME280;17546;42.674;23.284;2023-04-19T08:59:12;94321.28;;;16.44;46.59
30819;BME280;17546;42.674;23.284;2023-04-19T09:01:38;94327.41;;;16.64;46.00
30819;BME280;17546;42.674;23.284;2023-04-19T09:04:05;94293.63;;;16.12;46.28
30819;BME280;17546;42.674;23.284;2023-04-19T09:06:39;94303.28;;;17.03;44.77
30819;BME280;17546;42.674;23.284;2023-04-19T09:09:18;94324.41;;;17.40;44.11
30819;BME280;17546;42.674;23.284;2023-04-19T09:11:44;94279.41;;;17.02;44.63
30819;BME280;17546;42.674;23.284;2023-04-19T09:14:12;94251.78;;;16.98;43.98
30819;BME280;17546;42.674;23.284;2023-04-19T09:16:38;94262.94;;;16.90;44.38
30819;BME280;17546;42.674;23.284;2023-04-19T09:19:04;94285.69;;;17.23;44.97
30819;BME280;17546;42.674;23.284;2023-04-19T09:21:31;94252.88;;;16.95;44.74
30819;BME280;17546;42.674;23.284;2023-04-19T09:23:57;94242.94;;;17.67;43.38
30819;BME280;17546;42.674;23.284;2023-04-19T09:26:24;94239.19;;;17.72;43.21
30819;BME280;17546;42.674;23.284;2023-04-19T09:29:01;94308.06;;;18.27;43.16
30819;BME280;17546;42.674;23.284;2023-04-19T09:31:32;94240.97;;;17.90;42.88
30819;BME280;17546;42.674;23.284;2023-04-19T09:34:12;94301.19;;;18.97;42.03
30819;BME280;17546;42.674;23.284;2023-04-19T09:36:38;94268.69;;;18.78;41.79
30819;BME280;17546;42.674;23.284;2023-04-19T09:39:05;94255.19;;;18.77;40.30
30819;BME280;17546;42.674;23.284;2023-04-19T09:41:31;94275.31;;;19.29;40.30
30819;BME280;17546;42.674;23.284;2023-04-19T09:44:08;94253.59;;;19.30;39.26
30819;BME280;17546;42.674;23.284;2023-04-19T09:46:36;94229.53;;;19.52;39.01
30819;BME280;17546;42.674;23.284;2023-04-19T09:49:15;94297.81;;;19.06;39.37
30819;BME280;17546;42.674;23.284;2023-04-19T09:51:41;94258.75;;;18.77;39.98
30819;BME280;17546;42.674;23.284;2023-04-19T09:54:09;94245.22;;;19.14;39.20
30819;BME280;17546;42.674;23.284;2023-04-19T09:56:35;94251.97;;;18.96;39.32
30819;BME280;17546;42.674;23.284;2023-04-19T09:59:08;94220.69;;;19.15;38.97
30819;BME280;17546;42.674;23.284;2023-04-19T10:01:46;94220.00;;;18.76;39.51
30819;BME280;17546;42.674;23.284;2023-04-19T10:04:15;94222.16;;;19.24;38.26
30819;BME280;17546;42.674;23.284;2023-04-19T10:06:52;94215.25;;;19.57;37.80
30819;BME280;17546;42.674;23.284;2023-04-19T10:09:20;94227.78;;;19.24;38.42
30819;BME280;17546;42.674;23.284;2023-04-19T10:12:06;94280.09;;;19.92;37.57
30819;BME280;17546;42.674;23.284;2023-04-19T10:14:34;94245.00;;;19.68;38.40
30819;BME280;17546;42.674;23.284;2023-04-19T10:17:01;94210.59;;;19.93;37.16
30819;BME280;17546;42.674;23.284;2023-04-19T10:19:27;94212.56;;;19.75;38.08
30819;BME280;17546;42.674;23.284;2023-04-19T10:21:53;94231.09;;;20.11;37.69
30819;BME280;17546;42.674;23.284;2023-04-19T10:24:21;94199.75;;;19.89;37.60
30819;BME280;17546;42.674;23.284;2023-04-19T10:27:12;94270.84;;;19.18;39.31
30819;BME280;17546;42.674;23.284;2023-04-19T10:29:58;94273.47;;;19.16;39.58
30819;BME280;17546;42.674;23.284;2023-04-19T10:32:29;94203.97;;;19.73;38.50
30819;BME280;17546;42.674;23.284;2023-04-19T10:35:00;94189.19;;;19.97;37.39
30819;BME280;17546;42.674;23.284;2023-04-19T10:37:26;94216.69;;;20.32;37.07
30819;BME280;17546;42.674;23.284;2023-04-19T10:39:52;94218.97;;;20.26;36.60
30819;BME280;17546;42.674;23.284;2023-04-19T10:42:18;94214.06;;;20.09;37.30
30819;BME280;17546;42.674;23.284;2023-04-19T10:47:48;94181.56;;;19.57;37.45
30819;BME280;17546;42.674;23.284;2023-04-19T10:50:16;94201.41;;;19.59;38.08
30819;BME280;17546;42.674;23.284;2023-04-19T10:52:43;94179.91;;;19.14;38.04
30819;BME280;17546;42.674;23.284;2023-04-19T10:55:08;94204.88;;;19.75;37.26
30819;BME280;17546;42.674;23.284;2023-04-19T10:58:02;94231.31;;;19.32;37.64
30819;BME280;17546;42.674;23.284;2023-04-19T11:00:31;94197.47;;;19.63;36.50
30819;BME280;17546;42.674;23.284;2023-04-19T11:06:18;94166.16;;;20.24;35.65
30819;BME280;17546;42.674;23.284;2023-04-19T11:08:46;94179.50;;;20.83;35.04
30819;BME280;17546;42.674;23.284;2023-04-19T11:11:12;94173.19;;;20.75;34.55
30819;BME280;17546;42.674;23.284;2023-04-19T11:13:41;94224.78;;;21.48;34.45
30819;BME280;17546;42.674;23.284;2023-04-19T11:16:08;94165.97;;;21.17;34.12
30819;BME280;17546;42.674;23.284;2023-04-19T11:18:36;94176.19;;;19.85;36.08
30819;BME280;17546;42.674;23.284;2023-04-19T11:21:02;94165.81;;;20.62;35.08
30819;BME280;17546;42.674;23.284;2023-04-19T11:23:28;94171.53;;;20.05;36.26
30819;BME280;17546;42.674;23.284;2023-04-19T11:25:54;94173.72;;;20.56;35.64
30819;BME280;17546;42.674;23.284;2023-04-19T11:28:20;94155.28;;;20.63;34.88
30819;BME280;17546;42.674;23.284;2023-04-19T11:30:47;94218.19;;;21.62;34.29
30819;BME280;17546;42.674;23.284;2023-04-19T11:33:12;94195.78;;;21.37;34.13
30819;BME280;17546;42.674;23.284;2023-04-19T11:35:38;94161.78;;;20.91;34.32
30819;BME280;17546;42.674;23.284;2023-04-19T11:38:05;94222.03;;;21.22;34.44
30819;BME280;17546;42.674;23.284;2023-04-19T11:40:31;94158.38;;;20.92;34.11
30819;BME280;17546;42.674;23.284;2023-04-19T11:42:59;94156.34;;;21.37;33.14
30819;BME280;17546;42.674;23.284;2023-04-19T11:45:30;94141.75;;;20.27;33.72
30819;BME280;17546;42.674;23.284;2023-04-19T11:47:56;94214.94;;;21.04;33.53
30819;BME280;17546;42.674;23.284;2023-04-19T11:50:38;94167.06;;;20.87;33.41
30819;BME280;17546;42.674;23.284;2023-04-19T11:53:20;94214.75;;;21.37;32.28
30819;BME280;17546;42.674;23.284;2023-04-19T11:55:57;94160.25;;;21.07;32.53
30819;BME280;17546;42.674;23.284;2023-04-19T11:58:43;94217.25;;;22.04;32.14
30819;BME280;17546;42.674;23.284;2023-04-19T12:01:11;94174.13;;;21.40;32.77
30819;BME280;17546;42.674;23.284;2023-04-19T12:03:45;94143.56;;;21.36;32.75
30819;BME280;17546;42.674;23.284;2023-04-19T12:06:14;94158.06;;;21.50;33.73
30819;BME280;17546;42.674;23.284;2023-04-19T12:08:46;94204.28;;;21.92;32.89
30819;BME280;17546;42.674;23.284;2023-04-19T12:11:13;94141.88;;;21.23;32.69
30819;BME280;17546;42.674;23.284;2023-04-19T12:13:39;94152.63;;;21.35;32.52
30819;BME280;17546;42.674;23.284;2023-04-19T12:16:08;94154.47;;;21.05;32.16
30819;BME280;17546;42.674;23.284;2023-04-19T12:18:48;94134.41;;;20.49;33.28
30819;BME280;17546;42.674;23.284;2023-04-19T12:21:30;94167.38;;;21.25;32.73
30819;BME280;17546;42.674;23.284;2023-04-19T12:24:02;94150.94;;;21.32;32.43
30819;BME280;17546;42.674;23.284;2023-04-19T12:26:28;94191.78;;;21.40;31.52
30819;BME280;17546;42.674;23.284;2023-04-19T12:28:58;94165.47;;;21.73;31.08
30819;BME280;17546;42.674;23.284;2023-04-19T12:31:24;94148.44;;;21.80;30.97
30819;BME280;17546;42.674;23.284;2023-04-19T12:33:50;94170.88;;;21.88;31.29
30819;BME280;17546;42.674;23.284;2023-04-19T12:36:16;94123.19;;;21.73;30.73
30819;BME280;17546;42.674;23.284;2023-04-19T12:38:42;94151.59;;;21.57;32.31
30819;BME280;17546;42.674;23.284;2023-04-19T12:41:07;94110.44;;;21.00;32.65
30819;BME280;17546;42.674;23.284;2023-04-19T12:43:33;94136.25;;;21.23;33.11
30819;BME280;17546;42.674;23.284;2023-04-19T12:45:59;94114.81;;;20.93;33.45
30819;BME280;17546;42.674;23.284;2023-04-19T12:48:26;94111.47;;;19.92;34.60
30819;BME280;17546;42.674;23.284;2023-04-19T12:50:52;94182.09;;;20.21;35.24
30819;BME280;17546;42.674;23.284;2023-04-19T12:53:18;94137.28;;;20.66;34.64
30819;BME280;17546;42.674;23.284;2023-04-19T12:55:43;94152.53;;;21.42;33.06